Logo

Informe meteorológico de la semana en curso

  • Compartir en Google Plus
  • Compartir en Twitter
  • Compartir en Facebook
Nº de accesos al conjunto de datos: 337

Previsualización

API de datos Código HTML

_id codest paraje municipio periodo NDias tmin tmax tmed hrmin hrmax hrmed prec radmax radmed vvmed vvmax eto_pm_fao
1 AL31 Lebor Totana 17/01/2022 - 23/01/2022 3 0.4 13.8 5.7 35.6 93.1 73.0 0.0 766.0 115.5 1.5 4.0 4.0
2 AL41 La Calavera Alhama 17/01/2022 - 23/01/2022 1 -1.6 14.4 5.1 27.1 83.9 65.0 0.0 560.6 137.9 0.8 3.7 1.1
3 AL52 Los Palomos Librilla 17/01/2022 - 23/01/2022 3 -2.7 14.5 4.5 38.0 97.5 77.7 0.2 739.0 113.5 0.6 3.0 2.7
4 AL62 Cañada Gallego Mazarrón 17/01/2022 - 23/01/2022 2 1.5 14.0 7.0 36.1 90.3 75.1 0.0 552.4 134.6 0.7 4.0 2.0
5 AL91 Leiva Mazarrón 17/01/2022 - 23/01/2022 1 -0.4 14.7 6.4 43.0 99.9 82.7 0.2 562.9 138.1 0.9 5.3 1.1
6 CA12 La Palma Cartagena 17/01/2022 - 23/01/2022 3 1.1 14.8 7.7 47.4 91.0 75.6 0.2 696.3 127.6 0.5 4.8 2.6
7 CA21 Corvera Murcia 17/01/2022 - 23/01/2022 3 3.6 13.7 7.7 35.9 88.8 70.3 0.0 803.0 123.5 1.3 5.9 3.8
8 CA42 Balsapintada Fuente Alamo 17/01/2022 - 23/01/2022 3 -0.2 14.9 6.2 42.8 99.9 85.8 0.0 722.0 116.7 0.5 3.1 2.6
9 CA52 La Aljorra Cartagena 17/01/2022 - 23/01/2022 3 1.8 14.9 7.9 49.0 93.7 77.5 0.0 676.7 114.1 1.1 4.4 3.3
10 CA73 Los Belones Cartagena 17/01/2022 - 23/01/2022 3 4.8 13.8 9.4 55.2 93.2 76.0 0.8 557.3 133.5 0.8 4.9 3.0
11 CA91 Campillo Abajo Fuente Alamo 17/01/2022 - 23/01/2022 3 0.2 14.0 6.5 36.2 89.1 71.2 0.0 811.0 132.4 0.6 3.5 2.8
12 CI22 Estación de Blanca Blanca 17/01/2022 - 23/01/2022 3 -1.1 13.8 5.7 28.9 82.6 59.3 0.0 664.6 134.2 1.0 5.0 3.5
13 CI32 Estación Ulea Ulea 17/01/2022 - 23/01/2022 3 -1.1 13.8 5.4 32.8 85.9 64.0 0.0 649.6 125.8 1.5 4.5 4.3
14 CI42 La Carrichosa Cieza 17/01/2022 - 23/01/2022 3 -4.6 14.6 3.3 29.2 92.8 68.6 0.0 566.9 138.0 0.4 2.9 2.2
15 CI52 Rotas Calasparra 17/01/2022 - 23/01/2022 3 -5.9 14.7 2.7 25.0 85.5 59.5 0.0 596.7 143.9 0.1 4.0 1.4
16 CI71 Llano de las olivericas Calasparra 17/01/2022 - 23/01/2022 3 -3.1 14.3 5.8 31.1 78.2 54.3 0.0 489.0 120.3 0.8 3.4 2.1
17 CR12 Barranda Caravaca 17/01/2022 - 23/01/2022 3 -6.5 10.3 0.5 22.5 89.7 61.7 0.0 563.8 137.7 1.3 4.6 3.7
18 CR32 El Chaparral Cehegin 17/01/2022 - 23/01/2022 3 -8.2 13.5 0.8 20.2 90.3 68.1 0.0 559.9 142.3 0.6 7.1 2.6
19 CR42 Venta Ulea Moratalla 17/01/2022 - 23/01/2022 3 -4.3 13.1 3.2 24.7 83.3 60.3 0.0 535.9 133.6 1.2 3.9 3.8
20 CR52 La Torrecica Cehegin 17/01/2022 - 23/01/2022 3 -3.2 13.1 3.7 23.3 87.3 59.1 0.0 582.0 129.2 0.3 3.7 2.2
21 JU12 Cañada del Judio Jumilla 17/01/2022 - 23/01/2022 3 -3.9 13.4 3.5 28.0 86.6 63.8 0.0 546.9 127.4 0.8 4.6 3.1
22 JU42 Las Moratillas Yecla 17/01/2022 - 23/01/2022 3 -7.9 13.8 1.4 14.7 95.8 66.3 0.0 573.8 141.9 1.3 3.4 4.0
23 JU52 Pinillos Yecla 17/01/2022 - 23/01/2022 3 -6.8 14.6 2.0 21.4 92.1 63.8 0.0 538.9 134.2 0.6 3.6 2.7
24 JU62 Miraflores Jumilla 17/01/2022 - 23/01/2022 3 -6.6 13.2 2.0 31.3 91.5 67.4 0.0 562.8 135.8 0.7 3.7 2.7
25 JU71 Las Encebras Jumilla 17/01/2022 - 23/01/2022 1 -3.7 13.8 3.5 28.2 83.1 60.7 0.0 554.5 137.8 0.9 3.5 1.1
26 JU81 Roman Jumilla 17/01/2022 - 23/01/2022 2 -4.5 13.2 3.2 28.1 87.2 62.0 0.0 558.3 139.6 1.0 4.5 2.3
27 LO11 Purias Lorca 17/01/2022 - 23/01/2022 3 0.7 13.7 5.7 43.6 92.6 72.5 0.2 545.1 117.9 1.2 4.3 3.5
28 LO21 Pozohiguera Lorca 17/01/2022 - 23/01/2022 3 -0.8 13.3 5.6 46.3 99.9 81.9 0.1 536.5 127.9 1.9 6.3 4.0
29 LO31 La Pilica Aguilas 17/01/2022 - 23/01/2022 3 5.8 14.7 9.9 41.8 91.0 70.7 0.0 540.5 121.8 1.0 4.5 3.6
30 LO41 La Paca Lorca 17/01/2022 - 23/01/2022 3 -3.4 11.8 2.8 30.5 93.1 68.7 0.0 540.9 129.6 1.4 4.3 3.8
31 LO51 Tebar Aguilas 17/01/2022 - 23/01/2022 2 None None None None None None 0.0 594.4 147.1 1.6 5.7 None
32 LO61 El Esparragal Puerto Lumbreras 17/01/2022 - 23/01/2022 3 -2.9 14.0 4.3 25.9 91.8 72.0 0.1 584.3 147.3 0.7 3.9 2.9
33 ML12 Yechar Mula 17/01/2022 - 23/01/2022 1 -3.5 14.6 4.3 27.3 87.8 60.9 0.0 None None 0.7 3.2 1.0
34 ML21 Mula Mula 17/01/2022 - 23/01/2022 3 -0.6 13.6 4.9 26.6 80.1 60.7 0.0 761.0 137.0 1.1 4.0 3.8
35 MO12 Pilica Torres de Cotillas 17/01/2022 - 23/01/2022 3 0.5 13.8 6.3 36.8 93.8 71.0 0.0 633.5 124.3 0.7 3.6 2.9
36 MO22 Campotejar Molina Segura 17/01/2022 - 23/01/2022 3 0.6 14.6 6.4 30.4 82.4 56.1 0.0 825.0 121.9 1.9 7.3 5.2
37 MO31 El Llano Molina Segura 17/01/2022 - 23/01/2022 3 -3.7 15.4 4.4 28.3 100.0 74.0 0.0 731.0 123.2 0.3 3.2 2.1
38 MO41 La Jaira Abanilla 17/01/2022 - 23/01/2022 3 0.8 14.5 7.0 30.8 80.7 61.9 0.0 534.0 113.7 0.9 4.3 3.4
39 MO51 Charco Taray Fortuna 17/01/2022 - 23/01/2022 3 2.1 14.4 7.3 33.7 92.8 66.6 0.0 759.0 111.4 1.0 4.5 3.5
40 MO62 Loma del Aire Ojós 17/01/2022 - 23/01/2022 3 1.4 13.8 6.8 34.0 93.9 67.9 0.0 628.6 127.8 0.7 3.3 2.9
41 MU21 Los Alamos Beniel 17/01/2022 - 23/01/2022 3 -1.7 15.6 5.1 46.8 99.9 81.1 0.2 804.0 111.0 0.5 3.4 2.4
42 MU31 La Vereda Murcia 17/01/2022 - 23/01/2022 3 -0.4 14.5 5.7 38.2 97.1 76.3 0.0 755.6 112.8 0.6 3.8 2.6
43 MU52 Cabezo Plata Murcia 17/01/2022 - 23/01/2022 3 1.4 14.5 7.5 43.3 94.1 73.4 0.0 810.0 123.2 0.4 4.4 2.4
44 MU62 La Alberca Murcia 17/01/2022 - 23/01/2022 3 0.2 15.3 6.2 35.6 89.1 68.9 0.0 824.0 122.1 0.3 3.1 2.3
45 TP22 Santiago de la Ribera San Javier 17/01/2022 - 23/01/2022 3 -0.3 15.0 7.8 47.2 92.0 75.2 0.0 618.6 136.8 0.7 4.3 3.0
46 TP42 Torre Blanca Torre Pacheco 17/01/2022 - 23/01/2022 3 0.9 16.1 7.7 52.5 95.3 81.3 0.0 685.1 126.1 0.8 5.9 3.1
47 TP52 El Mirador San Javier 17/01/2022 - 23/01/2022 3 2.3 14.3 8.1 44.3 93.3 72.8 0.0 570.1 109.7 0.8 4.4 3.1
48 TP73 Los Infiernos Torre Pacheco 17/01/2022 - 23/01/2022 3 1.3 14.2 7.6 48.3 93.1 76.8 0.0 791.0 132.0 1.2 5.7 3.5
49 TP91 Torre Pacheco Torre Pacheco 17/01/2022 - 23/01/2022 3 1.5 14.9 7.3 48.1 94.7 79.0 0.4 746.0 131.6 0.9 4.0 3.2

Propiedades del conjunto de datos

Título
Informe meteorológico de la semana en curso
Descripción

Información sobre los datos meteorológicos medios de la semana en curso. Se incluye la información por cada una de las estaciones meteorológicas de la red SIAM gestionada por el Instituto Murciano de Investigación y Desarrollo Agrario y Alimentario (IMIDA). Los datos recogidos por las estaciones son validados al día siguiente de la toma de datos.

Categoría
Palabra clave / etiqueta
Publicador
Cobertura geográfica
Región de Murcia
Idioma
Español
Fecha de primera publicación
15/05/2018
Fecha de última modificación
20/01/2022
Licencia
Frecuencia de actualización
Diaria (cada día)
Diccionario de datos
La información se estructura en las siguientes columnas: Código de estación meteorológica, Nombre del paraje donde está ubicada la estación, Municipio donde está ubicada la estación, Fechas de toma de datos, número de días del ejercicio, Temperatura mínima (ºC), Temperatura máxima (ºC), Temperatura media (ºC), Humedad Relativa mínima (%), Humedad Relativa máxima (%),Humedad Relativa media (%),Precipitación (mm), radiación máxima (w/m2), radiación media (w/m2), Velocidad del Viento media (m/seg), Velocidad del Viento máxima (m/seg), Evapotranspiración máxima de un día (mm).
comments powered by Disqus